Time;durP1;ratioP1;P1;durP2;ratioP2;P2;SDS_P1;SDS_P2;PMS_P1;PMS_P2;Temp;Humidity;BMP_temperature;BMP_pressure;BME280_temperature;BME280_humidity;BME280_pressure;Samples;Min_cycle;Max_cycle;Signal;HPM_P1;HPM_P2
2021/05/13 00:01:45;;;;;;;10.57;2.63;;;;;;;;;;5124977;28;20007;-81
2021/05/13 00:04:10;;;;;;;9.53;2.73;;;;;;;;;;5132280;28;20031;-82
2021/05/13 00:06:39;;;;;;;7.13;2.67;;;;;;;;;;5111754;28;20020;-81
2021/05/13 00:09:06;;;;;;;8.07;2.57;;;;;;;;;;5128608;28;20022;-81
2021/05/13 00:11:33;;;;;;;8.60;2.50;;;;;;;;;;5132093;28;20030;-81
2021/05/13 00:14:00;;;;;;;7.53;3.00;;;;;;;;;;5132151;28;20043;-81
2021/05/13 00:16:29;;;;;;;19.43;3.10;;;;;;;;;;5130496;28;20040;-81
2021/05/13 00:18:55;;;;;;;9.97;3.30;;;;;;;;;;5128800;28;20023;-81
2021/05/13 00:21:21;;;;;;;13.60;3.10;;;;;;;;;;5123087;28;20030;-81
2021/05/13 00:23:47;;;;;;;7.37;2.80;;;;;;;;;;5128377;28;20007;-81
2021/05/13 00:26:12;;;;;;;10.33;3.00;;;;;;;;;;5126567;28;20011;-81
2021/05/13 00:28:38;;;;;;;6.80;2.50;;;;;;;;;;5116601;28;20015;-81
2021/05/13 00:31:04;;;;;;;12.33;3.27;;;;;;;;;;5114978;28;20008;-81
2021/05/13 00:33:30;;;;;;;10.37;2.83;;;;;;;;;;5122697;28;20023;-81
2021/05/13 00:35:55;;;;;;;8.27;3.20;;;;;;;;;;5122388;28;20016;-81
2021/05/13 00:38:21;;;;;;;11.53;3.20;;;;;;;;;;5118078;28;20028;-81
2021/05/13 00:40:46;;;;;;;9.30;3.23;;;;;;;;;;5120646;28;20023;-81
2021/05/13 00:43:11;;;;;;;9.63;2.83;;;;;;;;;;5123565;28;20041;-81
2021/05/13 00:45:37;;;;;;;7.70;2.93;;;;;;;;;;5106879;28;20031;-81
2021/05/13 00:48:04;;;;;;;9.87;3.67;;;;;;;;;;5121035;28;20020;-81
2021/05/13 00:50:30;;;;;;;11.33;3.77;;;;;;;;;;5126759;28;20024;-81
2021/05/13 00:52:55;;;;;;;13.27;3.60;;;;;;;;;;5126192;28;20080;-81
2021/05/13 00:55:21;;;;;;;14.07;3.43;;;;;;;;;;5126887;28;20035;-81
2021/05/13 00:57:49;;;;;;;16.13;3.70;;;;;;;;;;5125919;28;20030;-81
2021/05/13 01:00:34;;;;;;;9.07;3.23;;;;;;;;;;5112526;28;20054;-81
2021/05/13 01:03:00;;;;;;;9.87;3.43;;;;;;;;;;5127841;28;20020;-81
2021/05/13 01:05:26;;;;;;;10.77;2.93;;;;;;;;;;5126129;28;20418;-81
2021/05/13 01:07:51;;;;;;;9.63;3.20;;;;;;;;;;5124577;28;20391;-81
2021/05/13 01:10:17;;;;;;;8.83;2.93;;;;;;;;;;5126199;28;20024;-81
2021/05/13 01:12:43;;;;;;;13.60;3.93;;;;;;;;;;5126212;28;20383;-81
2021/05/13 01:15:09;;;;;;;14.67;3.20;;;;;;;;;;5119364;28;20036;-81
2021/05/13 01:17:53;;;;;;;10.67;3.27;;;;;;;;;;5090840;28;20055;-81
2021/05/13 01:20:18;;;;;;;10.73;3.33;;;;;;;;;;5100051;28;20092;-81
2021/05/13 01:22:44;;;;;;;12.53;3.77;;;;;;;;;;5103299;28;20391;-81
2021/05/13 01:25:09;;;;;;;12.40;3.40;;;;;;;;;;5087155;28;20020;-81
2021/05/13 01:27:34;;;;;;;12.07;3.50;;;;;;;;;;5112444;28;20472;-81
2021/05/13 01:30:00;;;;;;;12.83;4.07;;;;;;;;;;5111363;28;20036;-81
2021/05/13 01:32:25;;;;;;;10.27;3.70;;;;;;;;;;5109273;28;20435;-81
2021/05/13 01:34:50;;;;;;;16.17;3.83;;;;;;;;;;5108020;28;20015;-81
2021/05/13 01:37:16;;;;;;;12.70;3.30;;;;;;;;;;5110944;28;20391;-81
2021/05/13 01:39:41;;;;;;;16.23;4.40;;;;;;;;;;5105008;28;20112;-81
2021/05/13 01:42:06;;;;;;;12.97;4.10;;;;;;;;;;5104505;28;20024;-81
2021/05/13 01:44:31;;;;;;;10.73;4.03;;;;;;;;;;5104887;28;20043;-81
2021/05/13 01:46:57;;;;;;;9.87;3.63;;;;;;;;;;5110549;28;20026;-81
2021/05/13 01:49:23;;;;;;;14.40;3.90;;;;;;;;;;5095631;28;20027;-81
2021/05/13 01:51:49;;;;;;;10.57;4.20;;;;;;;;;;5100647;28;20019;-81
2021/05/13 01:54:15;;;;;;;13.60;4.13;;;;;;;;;;5123221;28;20352;-82
2021/05/13 01:56:41;;;;;;;12.50;3.77;;;;;;;;;;5114848;28;20024;-82
2021/05/13 01:59:06;;;;;;;13.33;4.27;;;;;;;;;;5103960;28;20024;-82
2021/05/13 02:01:32;;;;;;;8.43;3.63;;;;;;;;;;5105986;28;20032;-81
2021/05/13 02:03:57;;;;;;;13.03;4.30;;;;;;;;;;5105746;28;20456;-81
2021/05/13 02:06:22;;;;;;;13.90;4.93;;;;;;;;;;5102509;28;20657;-81
2021/05/13 02:08:48;;;;;;;14.27;5.20;;;;;;;;;;5108274;28;20019;-81
2021/05/13 02:11:13;;;;;;;10.97;3.90;;;;;;;;;;5107598;28;20035;-81
2021/05/13 02:13:38;;;;;;;10.67;4.20;;;;;;;;;;5113138;28;20055;-81
2021/05/13 02:16:03;;;;;;;11.73;4.30;;;;;;;;;;5116009;28;20016;-81
2021/05/13 02:18:29;;;;;;;12.57;4.73;;;;;;;;;;5124264;28;20020;-81
2021/05/13 02:20:54;;;;;;;13.10;5.80;;;;;;;;;;5118090;28;20024;-81
2021/05/13 02:23:20;;;;;;;14.60;5.33;;;;;;;;;;5123514;28;20020;-81
2021/05/13 02:25:46;;;;;;;15.70;5.10;;;;;;;;;;5122646;28;20497;-81
2021/05/13 02:28:12;;;;;;;16.43;5.43;;;;;;;;;;5124238;28;20060;-81
2021/05/13 02:30:37;;;;;;;17.80;6.17;;;;;;;;;;5124713;28;20011;-81
2021/05/13 02:33:02;;;;;;;14.70;6.00;;;;;;;;;;5123370;28;20028;-81
2021/05/13 02:35:28;;;;;;;17.00;6.60;;;;;;;;;;5120951;28;20215;-81
2021/05/13 02:37:53;;;;;;;15.90;5.97;;;;;;;;;;5125431;28;20560;-81
2021/05/13 02:40:18;;;;;;;14.10;5.33;;;;;;;;;;5123578;28;20019;-81
2021/05/13 02:42:46;;;;;;;15.37;5.93;;;;;;;;;;5127117;28;20024;-81
2021/05/13 02:45:12;;;;;;;12.60;5.17;;;;;;;;;;5128082;28;20388;-81
2021/05/13 02:47:38;;;;;;;11.40;5.33;;;;;;;;;;5129785;28;20015;-81
2021/05/13 02:50:04;;;;;;;11.93;6.23;;;;;;;;;;5124502;28;20077;-81
2021/05/13 02:52:30;;;;;;;10.67;5.60;;;;;;;;;;5127235;28;20030;-81
2021/05/13 02:54:55;;;;;;;12.23;5.07;;;;;;;;;;5126565;28;20059;-82
2021/05/13 02:57:20;;;;;;;12.63;5.73;;;;;;;;;;5126763;28;20459;-81
2021/05/13 02:59:52;;;;;;;14.90;5.30;;;;;;;;;;5125520;28;20023;-81
2021/05/13 03:02:18;;;;;;;18.27;5.75;;;;;;;;;;5126277;28;20030;-81
2021/05/13 03:04:43;;;;;;;12.53;5.00;;;;;;;;;;5124101;28;20023;-81
2021/05/13 03:07:09;;;;;;;16.10;5.10;;;;;;;;;;5124886;28;20011;-81
2021/05/13 03:09:41;;;;;;;12.00;5.77;;;;;;;;;;5128132;28;20024;-81
2021/05/13 03:12:06;;;;;;;10.68;4.88;;;;;;;;;;5124432;28;20030;-81
2021/05/13 03:14:32;;;;;;;12.13;5.10;;;;;;;;;;5127142;28;20052;-81
2021/05/13 03:16:58;;;;;;;12.23;5.10;;;;;;;;;;5124151;28;20154;-81
2021/05/13 03:19:34;;;;;;;16.67;5.80;;;;;;;;;;5129218;28;20035;-81
2021/05/13 03:22:02;;;;;;;17.00;5.53;;;;;;;;;;5129732;28;20111;-81
2021/05/13 03:24:48;;;;;;;13.80;5.00;;;;;;;;;;5127878;28;20024;-81
2021/05/13 03:27:25;;;;;;;10.27;4.90;;;;;;;;;;5127261;28;20015;-81
2021/05/13 03:29:51;;;;;;;11.83;4.90;;;;;;;;;;5127714;28;20026;-81
2021/05/13 03:32:16;;;;;;;10.27;4.77;;;;;;;;;;5127667;28;20102;-81
2021/05/13 03:34:41;;;;;;;14.17;5.10;;;;;;;;;;5126412;28;20448;-81
2021/05/13 03:37:06;;;;;;;12.83;4.43;;;;;;;;;;5125685;28;20379;-81
2021/05/13 03:39:32;;;;;;;10.70;4.80;;;;;;;;;;5127948;28;20052;-81
2021/05/13 03:41:57;;;;;;;12.43;5.20;;;;;;;;;;5125734;28;20020;-81
2021/05/13 03:44:22;;;;;;;14.40;5.77;;;;;;;;;;5127675;28;20031;-81
2021/05/13 03:46:48;;;;;;;12.97;5.13;;;;;;;;;;5126174;28;20107;-81
2021/05/13 03:49:13;;;;;;;10.47;4.87;;;;;;;;;;5122680;28;20039;-81
2021/05/13 03:51:38;;;;;;;11.33;5.40;;;;;;;;;;5108398;28;20024;-81
2021/05/13 03:54:03;;;;;;;13.90;5.50;;;;;;;;;;5125666;28;20383;-81
2021/05/13 03:56:29;;;;;;;11.87;5.23;;;;;;;;;;5119357;28;20028;-81
2021/05/13 03:58:58;;;;;;;13.10;6.03;;;;;;;;;;5121652;28;20062;-81
2021/05/13 04:04:24;;;;;;;10.93;4.97;;;;;;;;;;5043132;28;20029;-81
2021/05/13 04:06:49;;;;;;;11.30;5.10;;;;;;;;;;5106543;28;20034;-81
2021/05/13 04:09:15;;;;;;;10.77;4.73;;;;;;;;;;5107367;28;20034;-81
2021/05/13 04:11:40;;;;;;;13.07;5.30;;;;;;;;;;5119040;28;20115;-81
2021/05/13 04:14:07;;;;;;;7.87;4.33;;;;;;;;;;5124912;28;20059;-81
2021/05/13 04:16:35;;;;;;;9.50;4.77;;;;;;;;;;5120307;28;20031;-81
2021/05/13 04:19:00;;;;;;;13.13;4.27;;;;;;;;;;5128288;27;20047;-81
2021/05/13 04:21:26;;;;;;;9.53;4.33;;;;;;;;;;5126444;28;20032;-81
2021/05/13 04:23:51;;;;;;;10.80;4.63;;;;;;;;;;5125717;28;20095;-81
2021/05/13 04:26:17;;;;;;;12.33;4.83;;;;;;;;;;5122066;28;20035;-81
2021/05/13 04:28:42;;;;;;;10.77;5.13;;;;;;;;;;5123705;28;20070;-81
2021/05/13 04:31:07;;;;;;;8.57;4.23;;;;;;;;;;5116114;28;20039;-81
2021/05/13 04:33:33;;;;;;;13.03;5.17;;;;;;;;;;5125185;28;20031;-81
2021/05/13 04:35:58;;;;;;;7.80;4.10;;;;;;;;;;5125233;28;20052;-81
2021/05/13 04:38:23;;;;;;;8.83;4.13;;;;;;;;;;5122334;28;20098;-81
2021/05/13 04:40:50;;;;;;;7.30;3.63;;;;;;;;;;5123971;28;20031;-81
2021/05/13 04:43:16;;;;;;;8.63;3.70;;;;;;;;;;5113126;28;20028;-81
2021/05/13 04:45:41;;;;;;;9.40;3.50;;;;;;;;;;5118465;28;20030;-81
2021/05/13 04:48:10;;;;;;;6.57;3.03;;;;;;;;;;5123772;28;20434;-81
2021/05/13 04:50:36;;;;;;;7.27;3.87;;;;;;;;;;5123541;28;20547;-81
2021/05/13 04:53:07;;;;;;;9.33;3.30;;;;;;;;;;5124721;28;20019;-81
2021/05/13 04:55:32;;;;;;;8.97;3.63;;;;;;;;;;5122646;28;20023;-82
2021/05/13 04:57:58;;;;;;;9.77;3.30;;;;;;;;;;5125167;28;20028;-82
2021/05/13 05:00:23;;;;;;;8.40;3.57;;;;;;;;;;5103411;28;20028;-81
2021/05/13 05:02:48;;;;;;;9.30;3.37;;;;;;;;;;5122584;28;20098;-81
2021/05/13 05:05:14;;;;;;;8.50;3.30;;;;;;;;;;5119639;28;20024;-81
2021/05/13 05:07:39;;;;;;;9.73;3.43;;;;;;;;;;5122879;28;20020;-82
2021/05/13 05:10:04;;;;;;;7.37;3.60;;;;;;;;;;5124570;28;20307;-82
2021/05/13 05:12:30;;;;;;;10.03;3.30;;;;;;;;;;5105365;28;20480;-83
2021/05/13 05:14:57;;;;;;;7.53;3.43;;;;;;;;;;5118317;28;20526;-82
2021/05/13 05:17:22;;;;;;;6.93;3.13;;;;;;;;;;5123512;28;20049;-82
2021/05/13 05:19:47;;;;;;;10.87;3.30;;;;;;;;;;5121220;28;20339;-83
2021/05/13 05:22:13;;;;;;;10.43;3.23;;;;;;;;;;5122426;28;20083;-82
2021/05/13 05:24:39;;;;;;;9.30;3.53;;;;;;;;;;5122238;28;20022;-82
2021/05/13 05:27:04;;;;;;;6.27;2.63;;;;;;;;;;5120495;28;20020;-82
2021/05/13 05:29:29;;;;;;;12.10;3.47;;;;;;;;;;5123128;28;20024;-82
2021/05/13 05:31:55;;;;;;;9.63;3.20;;;;;;;;;;5121478;28;20055;-82
2021/05/13 05:34:20;;;;;;;7.77;2.63;;;;;;;;;;5123341;28;20056;-82
2021/05/13 05:36:45;;;;;;;12.47;3.53;;;;;;;;;;5122277;27;20100;-82
2021/05/13 05:39:11;;;;;;;9.20;3.33;;;;;;;;;;5117063;28;20023;-82
2021/05/13 05:41:36;;;;;;;10.43;3.20;;;;;;;;;;5119620;28;20579;-82
2021/05/13 05:44:01;;;;;;;11.73;3.23;;;;;;;;;;5124283;28;20031;-82
2021/05/13 05:46:27;;;;;;;12.37;3.37;;;;;;;;;;5121729;28;20387;-82
2021/05/13 05:48:53;;;;;;;8.70;3.10;;;;;;;;;;5122130;28;20123;-83
2021/05/13 05:51:19;;;;;;;7.93;3.07;;;;;;;;;;5123126;28;20090;-83
2021/05/13 05:53:44;;;;;;;8.30;3.53;;;;;;;;;;5122614;28;20023;-82
2021/05/13 05:56:09;;;;;;;6.30;2.87;;;;;;;;;;5120083;28;20041;-82
2021/05/13 05:58:34;;;;;;;8.43;2.80;;;;;;;;;;5104441;28;20028;-82
2021/05/13 06:01:00;;;;;;;8.47;3.40;;;;;;;;;;5121264;28;20027;-83
2021/05/13 06:03:25;;;;;;;6.17;3.13;;;;;;;;;;5122700;28;20523;-83
2021/05/13 06:05:50;;;;;;;8.00;2.57;;;;;;;;;;5116988;28;20020;-82
2021/05/13 06:08:16;;;;;;;10.70;2.73;;;;;;;;;;5122488;28;20098;-82
2021/05/13 06:10:41;;;;;;;6.57;2.67;;;;;;;;;;5113868;28;20024;-82
2021/05/13 06:13:07;;;;;;;9.80;2.70;;;;;;;;;;5122036;28;20043;-83
2021/05/13 06:15:33;;;;;;;5.60;2.77;;;;;;;;;;5117382;28;20392;-82
2021/05/13 06:17:59;;;;;;;6.60;2.70;;;;;;;;;;5113096;28;20015;-82
2021/05/13 06:20:25;;;;;;;5.20;2.53;;;;;;;;;;5119061;28;20039;-82
2021/05/13 06:22:50;;;;;;;6.63;2.50;;;;;;;;;;5123561;28;20363;-83
2021/05/13 06:25:16;;;;;;;7.87;2.30;;;;;;;;;;5121048;28;20091;-82
2021/05/13 06:27:42;;;;;;;5.40;2.20;;;;;;;;;;5121812;28;20024;-82
2021/05/13 06:30:07;;;;;;;5.10;2.20;;;;;;;;;;5117060;28;20416;-82
2021/05/13 06:32:33;;;;;;;8.57;2.10;;;;;;;;;;5120457;28;20032;-82
2021/05/13 06:34:58;;;;;;;4.07;1.63;;;;;;;;;;5119372;28;20028;-82
2021/05/13 06:37:23;;;;;;;5.03;1.90;;;;;;;;;;5121769;28;20031;-82
2021/05/13 06:39:48;;;;;;;6.27;2.03;;;;;;;;;;5103046;28;20019;-82
2021/05/13 06:42:20;;;;;;;5.70;2.17;;;;;;;;;;5122347;28;20024;-82
2021/05/13 06:44:45;;;;;;;8.65;1.90;;;;;;;;;;5119677;28;20024;-83
2021/05/13 06:47:12;;;;;;;6.00;1.80;;;;;;;;;;5119468;28;20046;-82
2021/05/13 06:49:38;;;;;;;5.70;2.20;;;;;;;;;;5119496;28;20026;-83
2021/05/13 06:52:03;;;;;;;5.37;1.90;;;;;;;;;;5112713;28;20044;-83
2021/05/13 06:54:29;;;;;;;8.17;2.10;;;;;;;;;;5120820;28;20416;-83
2021/05/13 06:56:54;;;;;;;7.33;1.90;;;;;;;;;;5115412;28;20048;-83
2021/05/13 06:59:19;;;;;;;5.80;2.00;;;;;;;;;;5118251;28;20028;-83
2021/05/13 07:01:45;;;;;;;4.33;1.80;;;;;;;;;;5112474;28;20020;-82
2021/05/13 07:04:19;;;;;;;7.20;1.93;;;;;;;;;;5116445;28;20023;-83
2021/05/13 07:06:44;;;;;;;6.80;1.95;;;;;;;;;;5109868;28;20368;-83
2021/05/13 07:09:09;;;;;;;6.50;2.10;;;;;;;;;;5115390;28;20020;-83
2021/05/13 07:11:35;;;;;;;5.03;2.00;;;;;;;;;;5102709;28;20086;-83
2021/05/13 07:14:01;;;;;;;5.57;1.90;;;;;;;;;;5113325;28;20482;-83
2021/05/13 07:16:26;;;;;;;6.37;1.80;;;;;;;;;;5114454;28;20035;-83
2021/05/13 07:18:53;;;;;;;5.40;1.70;;;;;;;;;;5115844;28;20054;-83
2021/05/13 07:21:18;;;;;;;4.60;1.80;;;;;;;;;;5095481;28;20445;-83
2021/05/13 07:23:43;;;;;;;5.47;1.83;;;;;;;;;;5115912;28;20015;-83
2021/05/13 07:26:09;;;;;;;5.15;1.50;;;;;;;;;;5117194;28;20020;-83
2021/05/13 07:28:35;;;;;;;9.27;2.15;;;;;;;;;;5118151;28;20099;-83
2021/05/13 07:31:00;;;;;;;8.52;2.08;;;;;;;;;;5117692;27;20019;-83
2021/05/13 07:33:26;;;;;;;4.18;1.70;;;;;;;;;;5119510;28;20100;-83
2021/05/13 07:35:51;;;;;;;4.68;1.77;;;;;;;;;;5119972;28;20434;-82
2021/05/13 07:38:17;;;;;;;4.40;1.73;;;;;;;;;;5119773;28;20015;-82
2021/05/13 07:40:42;;;;;;;6.50;1.90;;;;;;;;;;5118489;28;20026;-82
2021/05/13 07:43:08;;;;;;;6.50;2.05;;;;;;;;;;5119293;28;20022;-83
2021/05/13 07:45:34;;;;;;;6.20;1.67;;;;;;;;;;5116940;28;20012;-83
2021/05/13 07:47:59;;;;;;;3.83;1.67;;;;;;;;;;5117437;28;20011;-83
2021/05/13 07:50:25;;;;;;;8.43;2.10;;;;;;;;;;5116842;28;20096;-82
2021/05/13 07:52:51;;;;;;;6.50;1.83;;;;;;;;;;5119803;28;20370;-82
2021/05/13 07:55:16;;;;;;;4.97;2.00;;;;;;;;;;5117903;28;20026;-84
2021/05/13 07:57:43;;;;;;;7.75;2.00;;;;;;;;;;5118501;28;20023;-83
2021/05/13 08:00:09;;;;;;;7.65;2.42;;;;;;;;;;5117870;28;20020;-83
2021/05/13 08:02:34;;;;;;;4.78;1.70;;;;;;;;;;5117366;28;20031;-84
2021/05/13 08:05:00;;;;;;;4.07;1.40;;;;;;;;;;5120454;27;20012;-83
2021/05/13 08:07:25;;;;;;;4.53;1.50;;;;;;;;;;5117590;28;20029;-83
2021/05/13 08:09:51;;;;;;;4.10;1.33;;;;;;;;;;5119388;28;20019;-84
2021/05/13 08:12:16;;;;;;;5.30;1.65;;;;;;;;;;5120099;28;20467;-84
2021/05/13 08:14:43;;;;;;;5.63;1.80;;;;;;;;;;5119895;28;20039;-83
2021/05/13 08:17:08;;;;;;;3.92;1.35;;;;;;;;;;5119658;28;20085;-84
2021/05/13 08:19:33;;;;;;;7.47;1.40;;;;;;;;;;5120178;28;20024;-84
2021/05/13 08:21:59;;;;;;;2.92;1.30;;;;;;;;;;5119219;28;20383;-82
2021/05/13 08:24:24;;;;;;;4.13;1.50;;;;;;;;;;5124833;28;20099;-82
2021/05/13 08:26:49;;;;;;;3.53;1.20;;;;;;;;;;5122934;28;20016;-81
2021/05/13 08:29:15;;;;;;;4.05;1.20;;;;;;;;;;5121184;28;20038;-81
2021/05/13 08:31:40;;;;;;;5.22;1.40;;;;;;;;;;5120291;28;20376;-81
2021/05/13 08:34:05;;;;;;;5.85;1.60;;;;;;;;;;5120893;28;20028;-81
2021/05/13 08:36:31;;;;;;;4.22;1.05;;;;;;;;;;5101494;28;20445;-81
2021/05/13 08:38:56;;;;;;;4.05;0.98;;;;;;;;;;5121050;28;20414;-81
2021/05/13 08:41:21;;;;;;;2.80;1.05;;;;;;;;;;5110706;28;20059;-81
2021/05/13 08:43:50;;;;;;;3.50;1.00;;;;;;;;;;5118984;28;20045;-80
2021/05/13 08:46:19;;;;;;;3.78;1.10;;;;;;;;;;5110492;28;20062;-81
2021/05/13 08:48:45;;;;;;;6.00;1.38;;;;;;;;;;5114760;28;20016;-81
2021/05/13 08:51:11;;;;;;;3.08;1.10;;;;;;;;;;5118308;27;20048;-81
2021/05/13 08:53:48;;;;;;;3.05;1.10;;;;;;;;;;5121952;27;20060;-81
2021/05/13 08:56:14;;;;;;;5.38;1.40;;;;;;;;;;5117710;27;20367;-80
2021/05/13 08:58:39;;;;;;;4.13;1.23;;;;;;;;;;5115569;28;20016;-79
2021/05/13 09:01:05;;;;;;;2.97;1.17;;;;;;;;;;5116273;28;20072;-81
2021/05/13 09:03:35;;;;;;;4.53;1.00;;;;;;;;;;5121323;28;20035;-80
2021/05/13 09:06:00;;;;;;;6.05;1.52;;;;;;;;;;5120392;28;20471;-80
2021/05/13 09:08:25;;;;;;;3.22;1.02;;;;;;;;;;5118883;28;20107;-81
2021/05/13 09:10:51;;;;;;;4.38;1.30;;;;;;;;;;5117213;28;20490;-81
2021/05/13 09:13:26;;;;;;;5.45;1.70;;;;;;;;;;5119933;28;20020;-81
2021/05/13 09:15:51;;;;;;;3.45;1.30;;;;;;;;;;5110171;28;20052;-81
2021/05/13 09:18:29;;;;;;;3.50;1.20;;;;;;;;;;5115720;28;20038;-81
2021/05/13 09:21:01;;;;;;;5.60;1.48;;;;;;;;;;5113121;28;20020;-81
2021/05/13 09:23:28;;;;;;;5.13;1.40;;;;;;;;;;5116172;28;20126;-81
2021/05/13 09:26:13;;;;;;;5.03;1.80;;;;;;;;;;5108294;28;20056;-80
2021/05/13 09:28:39;;;;;;;5.90;1.52;;;;;;;;;;5114230;28;20031;-81
2021/05/13 09:31:05;;;;;;;6.10;1.50;;;;;;;;;;5114725;28;20027;-81
2021/05/13 09:33:38;;;;;;;3.47;1.23;;;;;;;;;;5118017;28;20012;-81
2021/05/13 09:36:36;;;;;;;5.95;1.65;;;;;;;;;;5110955;28;20084;-81
2021/05/13 09:39:20;;;;;;;5.78;1.50;;;;;;;;;;5063803;28;20395;-81
2021/05/13 09:41:56;;;;;;;5.35;1.52;;;;;;;;;;5112486;28;20034;-81
2021/05/13 09:44:34;;;;;;;3.40;1.02;;;;;;;;;;5115133;28;20031;-81
2021/05/13 09:47:22;;;;;;;3.28;1.10;;;;;;;;;;5112698;28;20027;-82
2021/05/13 09:49:59;;;;;;;2.38;0.93;;;;;;;;;;5109832;28;20280;-81
2021/05/13 09:52:36;;;;;;;3.35;1.30;;;;;;;;;;5113312;28;20028;-81
2021/05/13 09:55:08;;;;;;;5.60;1.17;;;;;;;;;;5114989;28;20029;-81
2021/05/13 09:57:33;;;;;;;4.38;1.17;;;;;;;;;;5113659;28;20066;-81
2021/05/13 09:59:58;;;;;;;6.38;1.48;;;;;;;;;;5111126;28;20031;-82
2021/05/13 10:02:23;;;;;;;4.10;1.02;;;;;;;;;;5112170;28;20027;-81
2021/05/13 10:04:49;;;;;;;4.40;0.88;;;;;;;;;;5107822;28;20047;-82
2021/05/13 10:07:14;;;;;;;4.85;0.77;;;;;;;;;;5114603;28;20475;-82
2021/05/13 10:09:39;;;;;;;3.85;0.90;;;;;;;;;;5109839;28;20127;-82
2021/05/13 10:12:06;;;;;;;3.10;0.70;;;;;;;;;;5113067;28;20034;-81
2021/05/13 10:14:31;;;;;;;4.88;1.30;;;;;;;;;;5114392;28;20062;-81
2021/05/13 10:17:00;;;;;;;5.90;1.20;;;;;;;;;;5113741;28;20027;-82
2021/05/13 10:19:37;;;;;;;2.60;0.90;;;;;;;;;;5112177;28;20081;-81
2021/05/13 10:22:04;;;;;;;3.65;0.90;;;;;;;;;;5106308;28;20055;-81
2021/05/13 10:24:29;;;;;;;3.47;0.80;;;;;;;;;;5115989;28;20035;-81
2021/05/13 10:26:54;;;;;;;3.75;0.77;;;;;;;;;;5114148;28;20502;-82
2021/05/13 10:29:22;;;;;;;4.53;1.00;;;;;;;;;;5114983;28;20028;-81
2021/05/13 10:32:00;;;;;;;4.53;1.08;;;;;;;;;;5105150;28;20033;-81
2021/05/13 10:34:40;;;;;;;3.63;0.98;;;;;;;;;;5111518;28;20027;-81
2021/05/13 10:37:18;;;;;;;2.80;1.00;;;;;;;;;;5111416;28;20555;-82
2021/05/13 10:40:01;;;;;;;2.78;0.98;;;;;;;;;;5106716;28;20027;-79
2021/05/13 10:42:30;;;;;;;2.85;0.85;;;;;;;;;;5118070;28;20023;-81
2021/05/13 10:44:56;;;;;;;1.77;0.50;;;;;;;;;;5107072;28;20388;-82
2021/05/13 10:47:27;;;;;;;2.35;0.70;;;;;;;;;;5108838;28;20030;-82
2021/05/13 10:49:53;;;;;;;2.60;0.80;;;;;;;;;;5107715;28;20019;-80
2021/05/13 10:52:40;;;;;;;2.35;0.60;;;;;;;;;;5110994;28;20031;-80
2021/05/13 10:55:07;;;;;;;3.80;1.05;;;;;;;;;;5109060;28;20085;-81
2021/05/13 10:57:49;;;;;;;4.10;0.90;;;;;;;;;;5111050;28;20093;-82
2021/05/13 11:00:17;;;;;;;4.22;1.20;;;;;;;;;;5089960;28;20034;-80
2021/05/13 11:02:44;;;;;;;4.22;1.00;;;;;;;;;;5112799;28;20067;-81
2021/05/13 11:05:42;;;;;;;3.58;0.77;;;;;;;;;;5116904;28;20031;-82
2021/05/13 11:08:07;;;;;;;3.58;1.00;;;;;;;;;;5115348;28;20422;-80
2021/05/13 11:11:05;;;;;;;2.17;0.90;;;;;;;;;;5110687;28;20027;-81
2021/05/13 11:13:40;;;;;;;3.30;0.85;;;;;;;;;;5057883;28;20031;-82
2021/05/13 11:16:05;;;;;;;2.92;0.55;;;;;;;;;;5118413;28;20491;-80
2021/05/13 11:18:32;;;;;;;3.33;0.50;;;;;;;;;;5118903;28;20028;-81
2021/05/13 11:20:57;;;;;;;2.63;0.50;;;;;;;;;;5119266;28;20015;-82
2021/05/13 11:23:27;;;;;;;2.67;0.80;;;;;;;;;;5114875;28;20680;-82
2021/05/13 11:25:54;;;;;;;2.88;0.68;;;;;;;;;;5118706;28;20081;-81
2021/05/13 11:28:23;;;;;;;1.65;0.70;;;;;;;;;;5116646;28;20076;-82
2021/05/13 11:30:50;;;;;;;3.53;0.80;;;;;;;;;;5117238;28;20028;-82
2021/05/13 11:33:16;;;;;;;3.28;0.80;;;;;;;;;;5115288;28;20500;-81
2021/05/13 11:35:42;;;;;;;1.73;0.80;;;;;;;;;;5110945;28;20464;-80
2021/05/13 11:38:16;;;;;;;2.95;1.15;;;;;;;;;;5096626;28;20114;-82
2021/05/13 11:40:42;;;;;;;2.05;0.70;;;;;;;;;;5113087;28;20141;-81
2021/05/13 11:43:13;;;;;;;5.45;0.90;;;;;;;;;;5113622;28;20113;-79
2021/05/13 11:45:38;;;;;;;;;;;;;;;;;;5109105;28;20101;-82
2021/05/13 11:48:16;;;;;;;2.80;0.70;;;;;;;;;;5114142;28;19983;-80
2021/05/13 11:50:43;;;;;;;3.88;1.10;;;;;;;;;;5119534;28;20258;-82
2021/05/13 11:53:14;;;;;;;3.35;0.70;;;;;;;;;;5117449;28;20099;-82
2021/05/13 11:55:40;;;;;;;2.97;0.88;;;;;;;;;;5109671;28;20040;-81
2021/05/13 11:58:06;;;;;;;3.88;0.90;;;;;;;;;;5119406;28;20034;-80
2021/05/13 12:00:31;;;;;;;3.33;0.98;;;;;;;;;;5110513;28;20119;-80
2021/05/13 12:03:13;;;;;;;4.68;1.10;;;;;;;;;;5117468;28;20024;-82
2021/05/13 12:05:46;;;;;;;3.00;0.70;;;;;;;;;;5115081;28;20053;-81
2021/05/13 12:08:13;;;;;;;2.40;1.00;;;;;;;;;;5110015;28;20070;-82
2021/05/13 12:10:39;;;;;;;3.97;1.10;;;;;;;;;;5111301;28;20111;-82
2021/05/13 12:13:04;;;;;;;3.55;0.80;;;;;;;;;;5115301;28;20063;-81
2021/05/13 12:15:29;;;;;;;2.80;0.90;;;;;;;;;;5109723;28;20052;-81
2021/05/13 12:17:54;;;;;;;4.43;1.30;;;;;;;;;;5114891;28;20477;-80
2021/05/13 12:20:20;;;;;;;3.72;1.05;;;;;;;;;;5110397;28;20043;-81
2021/05/13 12:22:45;;;;;;;6.82;1.27;;;;;;;;;;5115453;28;20020;-81
2021/05/13 12:25:11;;;;;;;2.53;0.90;;;;;;;;;;5116123;28;20016;-80
2021/05/13 12:27:36;;;;;;;3.40;1.00;;;;;;;;;;5118015;28;20022;-80
2021/05/13 12:30:01;;;;;;;3.25;0.98;;;;;;;;;;5112973;28;20040;-82
2021/05/13 12:32:27;;;;;;;3.70;1.00;;;;;;;;;;5112911;28;20039;-80
2021/05/13 12:34:52;;;;;;;3.95;1.00;;;;;;;;;;5111407;28;20072;-80
2021/05/13 12:37:21;;;;;;;3.70;0.90;;;;;;;;;;5109370;28;20027;-80
2021/05/13 12:39:47;;;;;;;3.13;1.20;;;;;;;;;;5114872;28;20814;-81
2021/05/13 12:42:31;;;;;;;2.58;0.98;;;;;;;;;;5117100;28;20016;-81
2021/05/13 12:45:15;;;;;;;2.67;1.00;;;;;;;;;;5117049;28;20024;-80
2021/05/13 12:47:41;;;;;;;2.95;0.93;;;;;;;;;;5114071;28;20034;-80
2021/05/13 12:50:06;;;;;;;2.90;1.00;;;;;;;;;;5107142;28;20024;-81
2021/05/13 12:52:32;;;;;;;3.72;1.08;;;;;;;;;;5110878;28;20027;-82
2021/05/13 12:55:10;;;;;;;4.50;1.10;;;;;;;;;;5117017;28;20035;-81
2021/05/13 12:57:40;;;;;;;4.20;1.10;;;;;;;;;;5098743;28;20084;-82
2021/05/13 13:00:06;;;;;;;2.75;1.00;;;;;;;;;;5117409;28;20062;-81
2021/05/13 13:02:31;;;;;;;3.60;1.00;;;;;;;;;;5120253;28;20020;-80
2021/05/13 13:04:58;;;;;;;3.42;1.02;;;;;;;;;;5096904;28;20024;-81
2021/05/13 13:07:53;;;;;;;4.00;1.10;;;;;;;;;;5114054;28;20028;-81
2021/05/13 13:10:32;;;;;;;4.55;1.63;;;;;;;;;;5099881;28;20038;-81
2021/05/13 13:13:01;;;;;;;6.07;0.93;;;;;;;;;;5115620;28;20106;-81
2021/05/13 13:15:33;;;;;;;3.33;1.17;;;;;;;;;;5084697;28;20500;-81
2021/05/13 13:18:17;;;;;;;3.72;1.08;;;;;;;;;;5113123;28;20395;-80
2021/05/13 13:20:44;;;;;;;4.97;1.40;;;;;;;;;;5115120;28;20030;-80
2021/05/13 13:23:15;;;;;;;3.53;0.90;;;;;;;;;;5111998;28;20110;-81
2021/05/13 13:25:41;;;;;;;4.03;1.00;;;;;;;;;;5105719;28;20043;-80
2021/05/13 13:28:08;;;;;;;2.88;0.90;;;;;;;;;;5114193;28;20023;-81
2021/05/13 13:30:33;;;;;;;3.05;1.00;;;;;;;;;;5113718;28;20026;-81
2021/05/13 13:33:00;;;;;;;4.10;0.90;;;;;;;;;;5113876;28;20024;-81
2021/05/13 13:35:27;;;;;;;3.47;1.05;;;;;;;;;;5110472;28;20194;-81
2021/05/13 13:37:52;;;;;;;3.20;0.88;;;;;;;;;;5114473;28;20030;-81
2021/05/13 13:40:17;;;;;;;2.97;1.08;;;;;;;;;;5112357;28;20290;-80
2021/05/13 13:42:42;;;;;;;4.78;1.10;;;;;;;;;;5117529;28;20028;-80
2021/05/13 13:45:08;;;;;;;3.90;1.38;;;;;;;;;;5115275;28;20020;-80
2021/05/13 13:47:34;;;;;;;3.03;1.10;;;;;;;;;;5112926;28;20055;-80
2021/05/13 13:49:59;;;;;;;3.03;0.85;;;;;;;;;;5115708;28;20051;-80
2021/05/13 13:52:24;;;;;;;2.47;0.80;;;;;;;;;;5113604;28;20031;-81
2021/05/13 13:54:49;;;;;;;4.38;1.10;;;;;;;;;;5113350;28;20030;-81
2021/05/13 13:57:15;;;;;;;4.88;1.10;;;;;;;;;;5114685;28;20125;-80
2021/05/13 13:59:41;;;;;;;4.40;1.20;;;;;;;;;;5114436;28;20038;-80
2021/05/13 14:02:06;;;;;;;3.80;1.02;;;;;;;;;;5112815;28;20042;-79
2021/05/13 14:04:31;;;;;;;4.07;1.20;;;;;;;;;;5114076;28;20055;-80
2021/05/13 14:06:56;;;;;;;5.90;1.33;;;;;;;;;;5097699;28;20084;-81
2021/05/13 14:09:22;;;;;;;6.82;1.30;;;;;;;;;;5118717;28;20031;-80
2021/05/13 14:11:47;;;;;;;2.70;1.10;;;;;;;;;;5112925;28;20031;-80
2021/05/13 14:14:12;;;;;;;4.50;1.30;;;;;;;;;;5094302;28;20035;-79
2021/05/13 14:16:38;;;;;;;3.33;1.10;;;;;;;;;;5112870;28;20024;-79
2021/05/13 14:19:03;;;;;;;5.18;1.20;;;;;;;;;;5114299;28;20140;-80
2021/05/13 14:21:29;;;;;;;2.95;1.20;;;;;;;;;;5112137;28;20231;-79
2021/05/13 14:23:54;;;;;;;4.43;1.40;;;;;;;;;;5116008;28;20101;-80
2021/05/13 14:26:19;;;;;;;5.13;1.23;;;;;;;;;;5092384;28;20035;-80
2021/05/13 14:28:45;;;;;;;5.35;1.20;;;;;;;;;;5110751;28;20044;-80
2021/05/13 14:31:10;;;;;;;5.85;1.73;;;;;;;;;;5113422;28;20045;-80
2021/05/13 14:33:35;;;;;;;4.95;1.48;;;;;;;;;;5112652;28;20042;-80
2021/05/13 14:36:01;;;;;;;4.13;1.27;;;;;;;;;;5110903;28;20031;-80
2021/05/13 14:38:26;;;;;;;3.78;1.20;;;;;;;;;;5110746;28;20483;-79
2021/05/13 14:40:51;;;;;;;5.60;1.75;;;;;;;;;;5106674;28;20035;-80
2021/05/13 14:43:17;;;;;;;3.28;1.20;;;;;;;;;;5112892;28;20129;-81
2021/05/13 14:45:42;;;;;;;4.15;1.42;;;;;;;;;;5114497;28;20016;-80